MHTE

Details ICAO MHTE (TEA)
Name TELA
Region Honduras
Timezone Unknown (UTC+0.0)
Plans Departing 4
Arriving 2
Stats Elevation 7 ft / 2 m (AMSL)
Location 15.775863° -87.475847°
Runways 1
Magnetic Variation 0.837° W
Sunrise 2018-05-22 11:20:09 UTC / 2018-05-22 11:20:09 Local
Sunset 2018-05-23 00:15:53 UTC / 2018-05-23 00:15:53 Local
Advertisement - Login to hide

Runways

ID Width Length Bearing (true) Bearing (mag) Surface Threshold Offset Overrun Length
06 98 ft / 30 m 4,419 ft / 1,347 m 57.43° 58.27° Asphalt 0 ft / 0 m 0 ft / 0 m
24 98 ft / 30 m 4,419 ft / 1,347 m 237.43° 238.27° Asphalt 0 ft / 0 m 0 ft / 0 m

Map

Weather


0- 5 10 15 20 25 30 35+ Temperature / ° C

Clouds and Precipitation
Forecast for 2018-05-22 18:00 UTC. Updated 3 hours ago

Ground ~20,000 ft ~40,000 ft Winds

METAR

MHTE 221900Z 27006KT 9999 BKN028CB BKN080 32/25 Q1010 CB E SE TCU TDS HZ

TAF

Not found
Warning: Do not use this data for real-world aviation or navigation. No guarantee of current accuracy is given.